createdAt,value
2022-08-17T00:05:10.806Z,2.27
2022-08-17T00:15:50.676Z,2.00
2022-08-17T00:19:10.549Z,2.07
2022-08-17T00:22:34.993Z,2.23
2022-08-17T00:25:41.119Z,2.20
2022-08-17T00:29:00.319Z,2.10
2022-08-17T00:33:14.104Z,2.10
2022-08-17T00:38:38.876Z,2.20
2022-08-17T00:41:31.461Z,2.10
2022-08-17T00:44:30.383Z,2.23
2022-08-17T00:47:18.291Z,2.20
2022-08-17T00:49:59.737Z,2.17
2022-08-17T00:52:42.005Z,2.33
2022-08-17T00:58:19.846Z,1.87
2022-08-17T01:01:28.610Z,2.20
2022-08-17T01:04:13.320Z,1.80
2022-08-17T01:06:57.626Z,1.90
2022-08-17T01:09:32.089Z,1.70
2022-08-17T01:12:27.984Z,1.70
2022-08-17T01:15:04.914Z,1.80
2022-08-17T01:17:52.489Z,1.73
2022-08-17T01:20:47.863Z,1.90
2022-08-17T01:23:33.064Z,1.70
2022-08-17T01:26:19.606Z,1.53
2022-08-17T01:29:15.420Z,1.70
2022-08-17T01:35:01.436Z,1.80
2022-08-17T01:37:41.691Z,1.63
2022-08-17T01:40:45.600Z,1.30
2022-08-17T01:43:34.169Z,1.70
2022-08-17T01:46:28.209Z,1.85
2022-08-17T01:49:08.312Z,2.10
2022-08-17T01:51:51.497Z,1.63
2022-08-17T01:54:38.725Z,1.80
2022-08-17T01:57:29.499Z,1.80
2022-08-17T02:00:59.630Z,1.97
2022-08-17T02:04:00.786Z,1.65
2022-08-17T02:06:58.019Z,1.67
2022-08-17T02:09:41.173Z,1.70
2022-08-17T02:12:53.070Z,2.20
2022-08-17T02:15:51.232Z,1.90
2022-08-17T02:18:41.931Z,1.83
2022-08-17T02:25:02.136Z,1.90
2022-08-17T02:30:50.094Z,2.17
2022-08-17T02:34:14.103Z,1.70
2022-08-17T02:40:35.062Z,1.80
2022-08-17T02:43:33.913Z,1.47
2022-08-17T02:50:17.674Z,1.57
2022-08-17T02:53:16.456Z,1.90
2022-08-17T02:59:53.535Z,1.77
2022-08-17T03:02:44.415Z,1.50
2022-08-17T03:05:42.017Z,2.13
2022-08-17T03:08:32.807Z,1.77
2022-08-17T03:11:18.145Z,1.70
2022-08-17T03:14:02.227Z,1.43
2022-08-17T03:20:02.838Z,1.80
2022-08-17T03:22:53.585Z,1.70
2022-08-17T03:26:15.505Z,1.53
2022-08-17T03:33:39.446Z,1.60
2022-08-17T03:51:14.863Z,1.73
2022-08-17T03:54:47.925Z,1.50
2022-08-17T04:01:14.212Z,2.30
2022-08-17T04:14:56.765Z,1.30
2022-08-17T04:25:33.861Z,1.30
2022-08-17T04:28:27.460Z,1.70
2022-08-17T04:50:22.940Z,1.67
2022-08-17T04:56:50.079Z,1.93
2022-08-17T05:00:20.826Z,2.10
2022-08-17T05:06:55.101Z,1.90
2022-08-17T05:35:53.471Z,1.63
2022-08-17T05:48:05.137Z,4.20
2022-08-17T05:52:02.434Z,2.07
2022-08-17T05:58:58.246Z,3.53
2022-08-17T06:22:35.705Z,1.70
2022-08-17T06:25:54.989Z,2.00
2022-08-17T06:29:03.389Z,1.90
2022-08-17T06:43:48.057Z,4.73
2022-08-17T06:47:28.776Z,2.87
2022-08-17T06:53:52.032Z,2.10
2022-08-17T07:00:58.839Z,2.50
2022-08-17T07:05:01.145Z,1.77
2022-08-17T07:09:08.864Z,2.00
2022-08-17T07:16:00.075Z,2.03
2022-08-17T07:18:45.002Z,2.03
2022-08-17T07:21:50.493Z,2.77
2022-08-17T07:24:48.380Z,3.43
2022-08-17T07:27:28.241Z,2.15
2022-08-17T07:30:47.113Z,2.07
2022-08-17T07:36:50.104Z,2.10
2022-08-17T07:40:04.463Z,1.63
2022-08-17T07:42:48.276Z,1.63
2022-08-17T07:46:02.649Z,2.03
2022-08-17T07:52:47.796Z,2.73
2022-08-17T08:15:56.792Z,1.80
2022-08-17T08:22:58.425Z,5.03
2022-08-17T08:26:18.846Z,2.10
2022-08-17T08:32:46.984Z,3.07
2022-08-17T08:35:38.170Z,2.97
2022-08-17T08:38:49.915Z,2.10
2022-08-17T08:45:06.406Z,2.63
2022-08-17T08:51:52.525Z,2.30
2022-08-17T08:55:14.122Z,4.10
2022-08-17T08:58:06.001Z,3.10
2022-08-17T09:01:22.194Z,2.20
2022-08-17T09:05:10.401Z,2.10
2022-08-17T09:08:18.221Z,2.57
2022-08-17T09:11:23.368Z,2.40
2022-08-17T09:14:45.420Z,3.70
2022-08-17T09:18:08.527Z,2.00
2022-08-17T09:21:07.446Z,2.63
2022-08-17T09:24:02.983Z,2.73
2022-08-17T09:27:03.889Z,2.83
2022-08-17T09:29:45.284Z,2.20
2022-08-17T09:32:37.058Z,4.97
2022-08-17T09:35:51.667Z,3.47
2022-08-17T09:41:49.413Z,2.87
2022-08-17T09:44:39.955Z,11.40
2022-08-17T09:47:41.907Z,7.67
2022-08-17T09:50:55.586Z,7.07
2022-08-17T09:53:31.681Z,6.13
2022-08-17T09:57:11.723Z,4.47
2022-08-17T10:00:03.769Z,3.63
2022-08-17T10:03:18.029Z,3.10
2022-08-17T10:09:26.360Z,7.10
2022-08-17T10:12:46.468Z,4.13
2022-08-17T10:15:51.963Z,4.27
2022-08-17T10:28:31.528Z,4.50
2022-08-17T10:31:35.785Z,4.13
2022-08-17T10:34:47.265Z,3.20
2022-08-17T10:37:55.350Z,3.08
2022-08-17T10:40:52.603Z,3.33
2022-08-17T10:44:38.120Z,3.00
2022-08-17T10:47:18.267Z,3.03
2022-08-17T10:50:05.768Z,3.00
2022-08-17T10:53:21.015Z,3.20
2022-08-17T10:59:59.038Z,3.70
2022-08-17T11:03:07.808Z,4.35
2022-08-17T11:06:21.008Z,4.50
2022-08-17T11:12:42.354Z,4.07
2022-08-17T11:15:36.613Z,3.53
2022-08-17T11:18:55.131Z,4.00
2022-08-17T11:22:18.997Z,5.80
2022-08-17T11:25:07.724Z,8.50
2022-08-17T11:27:54.041Z,5.20
2022-08-17T11:31:06.820Z,5.10
2022-08-17T11:34:32.209Z,4.73
2022-08-17T11:41:12.934Z,3.57
2022-08-17T11:44:30.304Z,3.80
2022-08-17T11:51:14.089Z,5.20
2022-08-17T11:54:33.458Z,4.40
2022-08-17T11:57:47.068Z,4.80
2022-08-17T12:01:03.843Z,5.60
2022-08-17T12:07:09.311Z,3.80
2022-08-17T12:09:55.358Z,4.13
2022-08-17T12:12:40.833Z,3.77
2022-08-17T12:15:30.634Z,4.07
2022-08-17T12:18:18.838Z,3.80
2022-08-17T12:21:04.828Z,3.70
2022-08-17T12:30:16.377Z,3.90
2022-08-17T12:36:22.435Z,4.20
2022-08-17T12:39:35.038Z,4.03
2022-08-17T12:42:09.414Z,3.83
2022-08-17T12:47:52.567Z,4.53
2022-08-17T12:51:02.065Z,4.10
2022-08-17T12:54:15.102Z,3.80
2022-08-17T12:57:38.858Z,3.50
2022-08-17T13:03:36.804Z,4.27
2022-08-17T13:06:28.344Z,3.67
2022-08-17T13:09:23.040Z,3.63
2022-08-17T13:15:28.431Z,4.00
2022-08-17T13:18:52.685Z,4.30
2022-08-17T13:24:45.231Z,3.40
2022-08-17T13:27:33.742Z,3.70
2022-08-17T13:30:21.381Z,4.22
2022-08-17T13:33:22.829Z,3.90
2022-08-17T13:36:28.752Z,4.00
2022-08-17T13:39:41.385Z,4.20
2022-08-17T13:46:09.413Z,4.53
2022-08-17T13:48:46.730Z,3.47
2022-08-17T13:51:53.371Z,3.70
2022-08-17T13:54:56.415Z,3.77
2022-08-17T13:57:39.709Z,3.90
2022-08-17T14:00:49.674Z,3.97
2022-08-17T14:03:29.107Z,4.20
2022-08-17T14:06:13.241Z,3.90
2022-08-17T14:09:14.933Z,4.20
2022-08-17T14:15:17.363Z,3.93
2022-08-17T14:18:09.066Z,4.00
2022-08-17T14:20:48.624Z,3.83
2022-08-17T14:23:31.434Z,4.10
2022-08-17T14:26:23.400Z,4.33
2022-08-17T14:29:43.537Z,4.30
2022-08-17T14:32:45.747Z,4.40
2022-08-17T14:35:42.041Z,4.40
2022-08-17T14:41:34.349Z,3.57
2022-08-17T14:44:16.391Z,3.57
2022-08-17T14:52:59.192Z,3.40
2022-08-17T14:55:40.891Z,3.45
2022-08-17T14:58:52.477Z,3.47
2022-08-17T15:01:33.348Z,4.47
2022-08-17T15:04:09.999Z,3.83
2022-08-17T15:06:52.463Z,4.17
2022-08-17T15:09:56.526Z,3.50
2022-08-17T15:12:49.784Z,3.90
2022-08-17T15:15:52.719Z,3.80
2022-08-17T15:18:41.973Z,5.17
2022-08-17T15:24:47.465Z,6.03
2022-08-17T15:27:32.374Z,6.33
2022-08-17T15:30:16.802Z,6.80
2022-08-17T15:33:02.715Z,6.27
2022-08-17T15:35:44.309Z,7.30
2022-08-17T15:38:34.528Z,7.07
2022-08-17T15:41:22.382Z,6.93
2022-08-17T15:44:09.491Z,7.10
2022-08-17T15:46:54.279Z,6.30
2022-08-17T15:49:49.480Z,4.70
2022-08-17T15:52:35.858Z,4.93
2022-08-17T15:55:24.230Z,4.63
2022-08-17T15:58:15.325Z,4.13
2022-08-17T16:01:18.624Z,4.30
2022-08-17T16:04:29.778Z,4.33
2022-08-17T16:07:13.790Z,3.38
2022-08-17T16:13:01.454Z,3.70
2022-08-17T16:15:57.148Z,3.70
2022-08-17T16:18:40.486Z,3.37
2022-08-17T16:21:43.117Z,3.80
2022-08-17T16:24:56.785Z,3.70
2022-08-17T16:28:05.511Z,4.03
2022-08-17T16:31:01.210Z,3.58
2022-08-17T16:33:41.607Z,3.60
2022-08-17T16:36:22.017Z,3.50
2022-08-17T16:39:32.092Z,3.37
2022-08-17T16:42:11.475Z,3.27
2022-08-17T16:44:51.823Z,3.27
2022-08-17T16:47:34.914Z,3.37
2022-08-17T16:50:16.805Z,3.40
2022-08-17T16:53:00.437Z,3.10
2022-08-17T16:55:42.185Z,3.20
2022-08-17T16:58:23.576Z,3.93
2022-08-17T17:01:08.018Z,4.17
2022-08-17T17:04:08.424Z,4.67
2022-08-17T17:07:07.594Z,4.10
2022-08-17T17:10:19.192Z,4.60
2022-08-17T17:13:13.421Z,4.23
2022-08-17T17:15:58.158Z,3.90
2022-08-17T17:22:00.365Z,3.90
2022-08-17T17:25:17.707Z,3.80
2022-08-17T17:28:06.718Z,4.07
2022-08-17T17:31:18.978Z,4.60
2022-08-17T17:37:20.001Z,5.33
2022-08-17T17:40:03.123Z,5.10
2022-08-17T17:45:22.043Z,5.70
2022-08-17T17:48:07.659Z,5.80
2022-08-17T17:51:04.536Z,5.60
2022-08-17T17:53:59.785Z,5.13
2022-08-17T17:57:09.213Z,5.40
2022-08-17T18:03:00.591Z,5.87
2022-08-17T18:06:12.930Z,6.53
2022-08-17T18:09:25.383Z,5.73
2022-08-17T18:12:23.676Z,6.20
2022-08-17T18:15:25.796Z,6.00
2022-08-17T18:18:50.114Z,7.03
2022-08-17T18:22:04.137Z,6.20
2022-08-17T18:25:03.124Z,6.53
2022-08-17T18:31:04.724Z,6.47
2022-08-17T18:33:56.467Z,5.57
2022-08-17T18:36:51.133Z,5.43
2022-08-17T18:39:35.713Z,5.47
2022-08-17T18:42:41.433Z,6.32
2022-08-17T18:45:30.585Z,5.53
2022-08-17T18:48:26.956Z,6.07
2022-08-17T18:51:42.706Z,5.43
2022-08-17T18:54:58.821Z,5.80
2022-08-17T18:57:45.951Z,5.43
2022-08-17T19:00:54.358Z,4.93
2022-08-17T19:03:42.430Z,4.28
2022-08-17T19:06:39.080Z,5.10
2022-08-17T19:09:44.070Z,4.87
2022-08-17T19:12:50.189Z,4.47
2022-08-17T19:15:39.972Z,4.70
2022-08-17T19:18:23.552Z,4.20
2022-08-17T19:21:18.063Z,4.40
2022-08-17T19:24:03.843Z,4.27
2022-08-17T19:27:06.155Z,4.80
2022-08-17T19:29:53.269Z,5.33
2022-08-17T19:32:44.893Z,4.57
2022-08-17T19:38:54.963Z,4.50
2022-08-17T19:41:50.975Z,4.53
2022-08-17T19:44:55.800Z,5.00
2022-08-17T19:47:57.085Z,4.83
2022-08-17T19:50:44.488Z,5.00
2022-08-17T19:53:54.170Z,4.90
2022-08-17T19:57:04.885Z,4.40
2022-08-17T20:00:11.516Z,4.87
2022-08-17T20:02:57.109Z,4.87
2022-08-17T20:06:11.628Z,4.95
2022-08-17T20:09:03.546Z,5.53
2022-08-17T20:12:13.507Z,4.77
2022-08-17T20:15:11.117Z,5.60
2022-08-17T20:17:52.697Z,5.35
2022-08-17T20:20:55.863Z,5.17
2022-08-17T20:24:19.548Z,5.77
2022-08-17T20:27:04.068Z,6.03
2022-08-17T20:30:08.985Z,5.47
2022-08-17T20:33:03.650Z,5.30
2022-08-17T20:36:58.342Z,5.77
2022-08-17T20:39:39.205Z,5.67
2022-08-17T20:42:37.026Z,6.50
2022-08-17T20:46:17.720Z,5.83
2022-08-17T20:49:37.985Z,5.53
2022-08-17T20:52:27.693Z,5.93
2022-08-17T20:55:10.709Z,5.80
2022-08-17T20:58:43.891Z,6.17
2022-08-17T21:05:10.062Z,4.18
2022-08-17T21:11:08.509Z,4.60
2022-08-17T21:14:17.870Z,5.80
2022-08-17T21:17:45.769Z,6.20
2022-08-17T21:23:46.732Z,6.33
2022-08-17T21:29:31.967Z,5.90
2022-08-17T21:32:37.379Z,5.23
2022-08-17T21:36:09.818Z,5.87
2022-08-17T21:39:07.284Z,4.80
2022-08-17T21:41:54.227Z,4.43
2022-08-17T21:44:41.222Z,5.67
2022-08-17T21:47:39.044Z,4.97
2022-08-17T21:50:31.715Z,4.33
2022-08-17T21:53:40.589Z,5.77
2022-08-17T21:56:35.820Z,4.88
2022-08-17T21:59:41.111Z,5.57
2022-08-17T22:02:28.788Z,9.27
2022-08-17T22:11:32.473Z,6.00
2022-08-17T22:14:51.491Z,6.90
2022-08-17T22:17:49.287Z,5.20
2022-08-17T22:20:42.371Z,5.33
2022-08-17T22:23:48.326Z,4.33
2022-08-17T22:26:36.979Z,4.07
2022-08-17T22:29:24.724Z,4.00
2022-08-17T22:35:38.347Z,3.60
2022-08-17T22:41:57.416Z,3.80
2022-08-17T22:48:00.904Z,2.70
2022-08-17T22:50:40.619Z,3.10
2022-08-17T22:53:53.782Z,3.10
2022-08-17T22:56:53.136Z,3.00
2022-08-17T23:00:07.161Z,3.13
2022-08-17T23:03:28.689Z,3.20
2022-08-17T23:06:27.748Z,2.77
2022-08-17T23:09:32.899Z,2.63
2022-08-17T23:12:28.077Z,2.80
2022-08-17T23:15:39.757Z,3.47
2022-08-17T23:18:33.520Z,2.53
2022-08-17T23:24:23.429Z,2.80
2022-08-17T23:37:19.152Z,3.45
2022-08-17T23:40:37.313Z,2.47
